Time;durP1;ratioP1;P1;durP2;ratioP2;P2;SDS_P1;SDS_P2;PMS_P1;PMS_P2;Temp;Humidity;BMP_temperature;BMP_pressure;BME280_temperature;BME280_humidity;BME280_pressure;Samples;Min_cycle;Max_cycle;Signal;HPM_P1;HPM_P2
2022/08/09 00:00:19;;;;;;;;;;;;;;;24.03;48.73;100349.28;4294354;33;20003;-83
2022/08/09 00:02:47;;;;;;;;;;;;;;;24.05;48.65;100336.84;4294920;33;19989;-84
2022/08/09 00:05:18;;;;;;;;;;;;;;;24.28;48.86;100335.25;4291292;33;20441;-85
2022/08/09 00:08:09;;;;;;;;;;;;;;;23.86;50.56;100338.34;4278478;33;19992;-81
2022/08/09 00:10:57;;;;;;;;;;;;;;;23.62;51.49;100346.06;4296216;33;20035;-83
2022/08/09 00:13:24;;;;;;;;;;;;;;;23.73;50.64;100347.56;4280625;33;19981;-83
2022/08/09 00:15:53;;;;;;;;;;;;;;;23.89;49.80;100341.75;4282055;33;19989;-83
2022/08/09 00:18:29;;;;;;;;;;;;;;;23.76;49.93;100343.03;4291925;33;19988;-82
2022/08/09 00:21:03;;;;;;;;;;;;;;;23.77;49.64;100338.63;4292336;33;19977;-83
2022/08/09 00:23:30;;;;;;;;;;;;;;;23.83;49.48;100333.16;4292612;33;19982;-83
2022/08/09 00:26:17;;;;;;;;;;;;;;;23.74;49.91;100341.34;4297896;33;20319;-82
2022/08/09 00:28:44;;;;;;;;;;;;;;;23.66;50.18;100331.84;4285139;33;19984;-81
2022/08/09 00:31:21;;;;;;;;;;;;;;;23.80;49.97;100335.87;4284011;33;19977;-81
2022/08/09 00:34:08;;;;;;;;;;;;;;;23.53;50.70;100334.91;4294134;33;19988;-82
2022/08/09 00:36:36;;;;;;;;;;;;;;;23.65;50.54;100340.72;4291522;33;20003;-82
2022/08/09 00:39:05;;;;;;;;;;;;;;;23.67;50.49;100338.00;4283442;33;20033;-82
2022/08/09 00:41:42;;;;;;;;;;;;;;;23.71;50.34;100336.16;4283731;33;20388;-81
2022/08/09 00:44:29;;;;;;;;;;;;;;;23.59;50.60;100340.03;4291933;33;20363;-81
2022/08/09 00:46:57;;;;;;;;;;;;;;;23.72;50.32;100329.97;4292052;33;19999;-81
2022/08/09 00:49:32;;;;;;;;;;;;;;;23.78;50.11;100332.44;4293540;33;20271;-82
2022/08/09 00:51:59;;;;;;;;;;;;;;;23.62;50.64;100340.78;4283645;33;19989;-81
2022/08/09 00:54:41;;;;;;;;;;;;;;;23.37;51.40;100334.50;4295068;33;19985;-83
2022/08/09 00:57:11;;;;;;;;;;;;;;;23.56;50.79;100326.91;4299582;33;20334;-83
2022/08/09 00:59:42;;;;;;;;;;;;;;;23.26;52.18;100323.34;4296027;33;20495;-81
2022/08/09 01:02:14;;;;;;;;;;;;;;;23.37;51.66;100321.28;4300257;33;20319;-81
2022/08/09 01:04:59;;;;;;;;;;;;;;;23.55;51.12;100312.81;4292812;33;20044;-81
2022/08/09 01:07:51;;;;;;;;;;;;;;;23.47;51.59;100322.75;4274876;33;19988;-82
2022/08/09 01:10:32;;;;;;;;;;;;;;;23.32;52.00;100326.69;4297502;33;19985;-82
2022/08/09 01:12:59;;;;;;;;;;;;;;;23.47;51.53;100335.94;4307524;33;20032;-82
2022/08/09 01:15:28;;;;;;;;;;;;;;;23.44;51.73;100325.47;4295864;33;20043;-83
2022/08/09 01:18:09;;;;;;;;;;;;;;;23.42;52.18;100322.00;4300090;33;20004;-82
2022/08/09 01:20:43;;;;;;;;;;;;;;;23.46;52.06;100323.66;4276911;33;19993;-81
2022/08/09 01:23:15;;;;;;;;;;;;;;;23.47;52.03;100325.37;4275556;33;20032;-82
2022/08/09 01:26:21;;;;;;;;;;;;;;;23.49;52.14;100328.84;4272735;33;20300;-83
2022/08/09 01:28:53;;;;;;;;;;;;;;;23.39;52.66;100327.41;4272251;33;20295;-82
2022/08/09 01:31:22;;;;;;;;;;;;;;;23.52;52.23;100312.91;4270948;33;20033;-81
2022/08/09 01:34:13;;;;;;;;;;;;;;;23.44;52.42;100312.25;4271047;33;20040;-81
2022/08/09 01:36:43;;;;;;;;;;;;;;;23.43;52.50;100307.91;4268242;33;19981;-82
2022/08/09 01:39:12;;;;;;;;;;;;;;;23.30;53.11;100306.53;4258276;33;20005;-81
2022/08/09 01:41:40;;;;;;;;;;;;;;;23.34;53.02;100313.44;4274417;33;19989;-83
2022/08/09 01:44:27;;;;;;;;;;;;;;;23.49;52.47;100314.78;4272510;33;20324;-82
2022/08/09 01:46:54;;;;;;;;;;;;;;;23.50;52.64;100312.09;4273638;33;20241;-82
2022/08/09 01:49:24;;;;;;;;;;;;;;;23.27;53.35;100311.91;4276041;33;20256;-82
2022/08/09 01:51:59;;;;;;;;;;;;;;;23.31;53.33;100313.53;4254807;33;20092;-82
2022/08/09 01:54:38;;;;;;;;;;;;;;;23.33;53.19;100311.72;4260445;33;20000;-82
2022/08/09 01:57:10;;;;;;;;;;;;;;;23.27;53.33;100311.91;4271882;33;19989;-82
2022/08/09 01:59:40;;;;;;;;;;;;;;;23.24;53.37;100304.91;4260875;33;20384;-82
2022/08/09 02:02:21;;;;;;;;;;;;;;;23.37;52.63;100302.78;4276361;33;20038;-82
2022/08/09 02:04:55;;;;;;;;;;;;;;;23.16;53.09;100305.13;4268792;33;20033;-81
2022/08/09 02:07:29;;;;;;;;;;;;;;;23.36;52.48;100301.06;4282770;33;20728;-82
2022/08/09 02:10:18;;;;;;;;;;;;;;;23.20;52.96;100296.22;4287377;33;19997;-81
2022/08/09 02:12:55;;;;;;;;;;;;;;;23.20;52.89;100296.22;4265762;33;20089;-81
2022/08/09 02:15:25;;;;;;;;;;;;;;;23.19;53.00;100294.47;4272047;33;20432;-83
2022/08/09 02:18:13;;;;;;;;;;;;;;;23.12;53.50;100292.06;4273412;33;19996;-83
2022/08/09 02:20:41;;;;;;;;;;;;;;;23.15;53.41;100286.69;4271100;33;19997;-81
2022/08/09 02:23:28;;;;;;;;;;;;;;;23.15;53.46;100290.19;4272985;33;19989;-83
2022/08/09 02:26:06;;;;;;;;;;;;;;;23.35;52.75;100288.75;4269752;33;19981;-83
2022/08/09 02:28:54;;;;;;;;;;;;;;;23.30;52.88;100286.25;4278442;33;20038;-82
2022/08/09 02:31:26;;;;;;;;;;;;;;;23.22;53.23;100275.03;4273389;33;20403;-83
2022/08/09 02:34:00;;;;;;;;;;;;;;;23.20;53.32;100276.88;4264746;33;20139;-82
2022/08/09 02:36:43;;;;;;;;;;;;;;;23.16;53.41;100273.41;4286901;33;20003;-83
2022/08/09 02:39:12;;;;;;;;;;;;;;;23.13;53.44;100270.91;4287993;33;19999;-83
2022/08/09 02:41:52;;;;;;;;;;;;;;;23.11;53.44;100278.00;4284844;33;19984;-81
2022/08/09 02:44:24;;;;;;;;;;;;;;;23.17;53.37;100283.09;4288230;33;20047;-82
2022/08/09 02:46:57;;;;;;;;;;;;;;;22.96;53.85;100281.06;4286390;33;19992;-82
2022/08/09 02:49:23;;;;;;;;;;;;;;;22.82;54.36;100283.19;4282787;33;20008;-83
2022/08/09 02:52:05;;;;;;;;;;;;;;;22.73;54.45;100279.88;4269297;33;20011;-81
2022/08/09 02:54:33;;;;;;;;;;;;;;;22.92;53.67;100279.38;4263305;33;800422;-82
2022/08/09 02:57:01;;;;;;;;;;;;;;;23.01;53.32;100279.16;4285284;33;19977;-82
2022/08/09 02:59:49;;;;;;;;;;;;;;;22.89;53.61;100285.59;4288046;33;19977;-82
2022/08/09 03:02:39;;;;;;;;;;;;;;;22.82;53.73;100283.19;4288305;33;19984;-82
2022/08/09 03:05:27;;;;;;;;;;;;;;;22.77;53.97;100279.78;4281607;33;20004;-82
2022/08/09 03:07:54;;;;;;;;;;;;;;;22.77;53.97;100291.22;4287206;33;20347;-82
2022/08/09 03:10:21;;;;;;;;;;;;;;;22.75;53.98;100293.91;4295848;33;20350;-83
2022/08/09 03:12:48;;;;;;;;;;;;;;;22.70;54.03;100289.66;4296025;33;19996;-82
2022/08/09 03:15:19;;;;;;;;;;;;;;;22.73;53.87;100301.00;4291909;33;20013;-82
2022/08/09 03:17:49;;;;;;;;;;;;;;;22.70;53.93;100301.06;4286825;33;20045;-82
2022/08/09 03:20:25;;;;;;;;;;;;;;;22.52;54.56;100291.00;4283016;33;20011;-81
2022/08/09 03:22:56;;;;;;;;;;;;;;;22.42;54.95;100295.63;4271155;33;19989;-82
2022/08/09 03:25:41;;;;;;;;;;;;;;;22.46;54.79;100293.78;4277674;33;20055;-82
2022/08/09 03:28:25;;;;;;;;;;;;;;;22.67;53.85;100290.59;4301423;33;19977;-82
2022/08/09 03:30:52;;;;;;;;;;;;;;;22.74;53.62;100292.16;4307933;33;20044;-83
2022/08/09 03:33:20;;;;;;;;;;;;;;;22.54;54.40;100293.59;4302761;33;20060;-82
2022/08/09 03:35:49;;;;;;;;;;;;;;;22.69;53.80;100294.06;4298722;33;19981;-84
2022/08/09 03:38:36;;;;;;;;;;;;;;;22.46;54.66;100301.69;4291539;33;19990;-82
2022/08/09 03:41:13;;;;;;;;;;;;;;;22.53;54.06;100298.03;4282481;33;19981;-81
2022/08/09 03:43:44;;;;;;;;;;;;;;;22.74;53.65;100302.72;4286909;33;20040;-82
2022/08/09 03:46:31;;;;;;;;;;;;;;;22.52;54.18;100299.78;4297142;33;20031;-83
2022/08/09 03:48:59;;;;;;;;;;;;;;;22.72;53.61;100293.12;4282603;33;19996;-82
2022/08/09 03:51:36;;;;;;;;;;;;;;;22.47;54.36;100299.03;4292493;33;19985;-81
2022/08/09 03:54:25;;;;;;;;;;;;;;;22.50;54.12;100292.81;4292272;33;19988;-82
2022/08/09 03:56:58;;;;;;;;;;;;;;;22.58;53.91;100290.84;4280089;33;19984;-82
2022/08/09 03:59:25;;;;;;;;;;;;;;;22.59;53.91;100292.59;4282159;33;19985;-82
2022/08/09 04:02:12;;;;;;;;;;;;;;;22.39;54.65;100300.12;4291272;33;20004;-81
2022/08/09 04:04:40;;;;;;;;;;;;;;;22.58;54.04;100301.37;4286178;33;19980;-81
2022/08/09 04:07:13;;;;;;;;;;;;;;;22.23;55.43;100300.50;4295978;33;20361;-82
2022/08/09 04:09:42;;;;;;;;;;;;;;;22.42;54.78;100305.31;4292744;33;19992;-81
2022/08/09 04:12:24;;;;;;;;;;;;;;;22.41;54.93;100299.19;4285568;33;20019;-81
2022/08/09 04:14:57;;;;;;;;;;;;;;;22.52;54.59;100297.13;4291268;33;19981;-80
2022/08/09 04:17:37;;;;;;;;;;;;;;;22.41;55.01;100309.75;3514580;33;10000550;-81
2022/08/09 04:20:05;;;;;;;;;;;;;;;22.36;55.13;100305.47;4222810;33;19995;-80
2022/08/09 04:22:33;;;;;;;;;;;;;;;22.31;55.41;100302.09;4285795;33;20331;-80
2022/08/09 04:25:00;;;;;;;;;;;;;;;22.45;54.79;100305.25;4290192;33;19999;-81
2022/08/09 04:27:28;;;;;;;;;;;;;;;22.49;54.78;100304.25;4294827;33;19999;-81
2022/08/09 04:29:58;;;;;;;;;;;;;;;22.24;55.84;100307.53;4295933;33;20267;-80
2022/08/09 04:32:28;;;;;;;;;;;;;;;22.09;56.45;100315.78;4274121;33;20547;-81
2022/08/09 04:34:59;;;;;;;;;;;;;;;22.41;55.27;100316.78;4282037;33;20004;-81
2022/08/09 04:37:27;;;;;;;;;;;;;;;22.48;55.25;100326.28;4291883;33;20308;-80
2022/08/09 04:40:15;;;;;;;;;;;;;;;22.57;54.80;100328.69;4281772;33;20402;-79
2022/08/09 04:43:01;;;;;;;;;;;;;;;22.67;54.78;100322.25;4287553;33;20065;-80
2022/08/09 04:45:30;;;;;;;;;;;;;;;22.65;55.05;100318.78;4289078;33;20449;-83
2022/08/09 04:48:17;;;;;;;;;;;;;;;22.68;54.92;100326.62;4279486;33;20315;-80
2022/08/09 04:50:44;;;;;;;;;;;;;;;22.55;55.60;100330.50;4293392;33;20331;-81
2022/08/09 04:53:15;;;;;;;;;;;;;;;22.63;55.54;100320.62;4293549;33;22785;-81
2022/08/09 04:55:42;;;;;;;;;;;;;;;22.74;55.33;100328.25;4288103;33;20072;-81
2022/08/09 04:58:26;;;;;;;;;;;;;;;22.70;55.14;100327.47;4294709;33;20720;-84
2022/08/09 05:00:52;;;;;;;;;;;;;;;22.81;54.86;100328.94;4280130;33;20044;-83
2022/08/09 05:03:20;;;;;;;;;;;;;;;22.85;54.58;100320.06;4285025;33;19980;-81
2022/08/09 05:06:07;;;;;;;;;;;;;;;22.99;53.94;100323.22;4288357;33;20335;-82
2022/08/09 05:08:34;;;;;;;;;;;;;;;22.84;54.35;100328.87;4281128;33;19988;-82
2022/08/09 05:11:02;;;;;;;;;;;;;;;22.83;54.62;100332.44;4280816;33;19985;-83
2022/08/09 05:13:32;;;;;;;;;;;;;;;22.94;54.25;100327.75;4281289;33;20417;-83
2022/08/09 05:16:05;;;;;;;;;;;;;;;22.72;55.12;100330.09;4284266;33;20041;-84
2022/08/09 05:18:32;;;;;;;;;;;;;;;22.63;55.70;100330.31;4267661;33;20076;-85
2022/08/09 05:21:19;;;;;;;;;;;;;;;22.87;54.77;100334.06;4289983;33;19993;-85
2022/08/09 05:23:51;;;;;;;;;;;;;;;22.88;54.82;100328.78;4278220;33;19993;-84
2022/08/09 05:26:26;;;;;;;;;;;;;;;22.86;55.04;100335.84;4284959;33;19996;-82
2022/08/09 05:29:18;;;;;;;;;;;;;;;22.98;54.58;100332.06;4290994;33;19991;-81
2022/08/09 05:31:48;;;;;;;;;;;;;;;22.70;55.91;100332.75;4282727;33;20006;-81
2022/08/09 05:34:26;;;;;;;;;;;;;;;22.90;55.12;100334.84;4288503;33;19995;-81
2022/08/09 05:36:58;;;;;;;;;;;;;;;22.64;56.08;100338.19;4284889;33;20040;-81
2022/08/09 05:39:28;;;;;;;;;;;;;;;22.89;55.45;100337.56;4289249;33;20323;-81
2022/08/09 05:42:09;;;;;;;;;;;;;;;23.00;55.24;100332.00;4281301;33;20033;-81
2022/08/09 05:44:51;;;;;;;;;;;;;;;23.13;54.71;100339.56;4287442;33;20004;-81
2022/08/09 05:47:22;;;;;;;;;;;;;;;22.92;55.89;100338.34;4283018;33;20368;-80
2022/08/09 05:49:51;;;;;;;;;;;;;;;23.13;55.23;100339.56;4286162;33;20440;-80
2022/08/09 05:52:38;;;;;;;;;;;;;;;23.10;55.14;100347.56;4289442;33;20036;-80
2022/08/09 05:55:06;;;;;;;;;;;;;;;23.29;54.74;100336.47;4291480;33;19993;-79
2022/08/09 05:57:35;;;;;;;;;;;;;;;23.27;55.02;100341.81;4283787;33;20004;-80
2022/08/09 06:00:22;;;;;;;;;;;;;;;23.36;54.67;100338.06;4285470;33;20349;-81
2022/08/09 06:02:49;;;;;;;;;;;;;;;23.50;54.52;100341.16;4289455;33;19999;-80
2022/08/09 06:05:20;;;;;;;;;;;;;;;23.61;53.99;100336.44;4271427;33;20044;-80
2022/08/09 06:08:07;;;;;;;;;;;;;;;23.74;53.68;100338.72;4297048;33;19992;-80
2022/08/09 06:10:37;;;;;;;;;;;;;;;23.77;53.25;100338.63;4259284;33;20620;-82
2022/08/09 06:13:04;;;;;;;;;;;;;;;23.72;53.88;100341.41;4288604;33;19997;-80
2022/08/09 06:15:45;;;;;;;;;;;;;;;23.55;54.33;100338.37;4283744;33;20003;-81
2022/08/09 06:18:13;;;;;;;;;;;;;;;23.68;54.28;100329.19;4276453;33;20036;-81
2022/08/09 06:20:43;;;;;;;;;;;;;;;23.62;54.42;100334.66;4283328;33;19984;-80
2022/08/09 06:23:23;;;;;;;;;;;;;;;23.81;54.05;100329.72;4288950;33;19980;-81
2022/08/09 06:26:18;;;;;;;;;;;;;;;23.74;54.17;100333.44;4281885;33;20000;-82
2022/08/09 06:28:49;;;;;;;;;;;;;;;23.96;54.14;100331.00;4271139;33;19984;-81
2022/08/09 06:31:27;;;;;;;;;;;;;;;23.88;53.97;100336.53;4262921;33;19999;-81
2022/08/09 06:34:05;;;;;;;;;;;;;;;24.22;52.84;100327.50;4288977;33;20763;-80
2022/08/09 06:36:33;;;;;;;;;;;;;;;24.28;52.60;100329.97;4294455;33;20040;-81
2022/08/09 06:39:00;;;;;;;;;;;;;;;24.66;51.03;100346.38;4290978;33;20060;-81
2022/08/09 06:41:34;;;;;;;;;;;;;;;24.69;51.74;100335.69;4295628;33;20350;-82
2022/08/09 06:44:25;;;;;;;;;;;;;;;24.48;51.30;100332.88;4270386;33;20351;-82
2022/08/09 06:46:52;;;;;;;;;;;;;;;25.24;50.26;100331.16;4290566;33;19985;-81
2022/08/09 06:49:24;;;;;;;;;;;;;;;25.37;49.03;100340.38;4283038;33;20015;-80
2022/08/09 06:52:11;;;;;;;;;;;;;;;25.98;47.87;100337.19;4282595;33;19987;-80
2022/08/09 06:54:42;;;;;;;;;;;;;;;26.09;47.53;100336.75;4290618;33;20005;-80
2022/08/09 06:57:10;;;;;;;;;;;;;;;26.36;47.25;100340.09;4295014;33;19980;-81
2022/08/09 06:59:41;;;;;;;;;;;;;;;26.79;46.65;100336.50;4294228;33;20051;-81
2022/08/09 07:02:32;;;;;;;;;;;;;;;27.20;45.05;100331.19;4293131;33;20010;-81
2022/08/09 07:05:00;;;;;;;;;;;;;;;27.47;44.25;100338.84;4287186;33;20004;-82
2022/08/09 07:07:27;;;;;;;;;;;;;;;27.52;44.05;100337.72;4289543;33;20089;-81
2022/08/09 07:10:15;;;;;;;;;;;;;;;27.65;44.02;100337.16;4281439;33;20060;-81
2022/08/09 07:12:57;;;;;;;;;;;;;;;28.12;41.88;100342.91;4285092;33;19981;-81
2022/08/09 07:15:24;;;;;;;;;;;;;;;27.79;42.89;100338.25;4286640;33;19985;-82
2022/08/09 07:18:11;;;;;;;;;;;;;;;28.17;42.94;100340.84;4287896;33;20342;-82
2022/08/09 07:20:41;;;;;;;;;;;;;;;28.25;41.21;100338.69;4294317;33;19989;-82
2022/08/09 07:23:11;;;;;;;;;;;;;;;28.34;42.77;100341.84;4290816;33;20019;-82
2022/08/09 07:25:46;;;;;;;;;;;;;;;28.71;39.95;100341.72;4287769;33;19995;-81
2022/08/09 07:28:19;;;;;;;;;;;;;;;28.85;41.50;100342.84;4294351;33;20040;-82
2022/08/09 07:30:52;;;;;;;;;;;;;;;29.16;39.06;100336.78;4279685;33;20399;-82
2022/08/09 07:33:20;;;;;;;;;;;;;;;29.28;39.69;100335.28;4285722;33;19993;-82
2022/08/09 07:35:48;;;;;;;;;;;;;;;29.50;39.14;100338.50;4279976;33;20004;-82
2022/08/09 07:38:20;;;;;;;;;;;;;;;29.58;38.54;100336.28;4261128;33;20099;-82
2022/08/09 07:40:49;;;;;;;;;;;;;;;29.43;38.37;100329.97;4279839;33;20040;-82
2022/08/09 07:43:36;;;;;;;;;;;;;;;29.63;39.51;100336.91;4283363;33;19992;-82
2022/08/09 07:46:16;;;;;;;;;;;;;;;29.92;37.81;100337.09;4271452;33;20031;-82
2022/08/09 07:48:46;;;;;;;;;;;;;;;30.05;38.25;100337.25;4273009;33;19993;-82
2022/08/09 07:51:26;;;;;;;;;;;;;;;30.59;36.76;100335.91;4273091;33;20060;-82
2022/08/09 07:54:13;;;;;;;;;;;;;;;30.35;36.75;100334.69;4270512;33;19988;-83
2022/08/09 07:56:40;;;;;;;;;;;;;;;30.47;37.46;100330.41;4283721;33;22308;-81
2022/08/09 07:59:15;;;;;;;;;;;;;;;30.71;35.36;100330.78;4280086;33;19988;-81
2022/08/09 08:01:59;;;;;;;;;;;;;;;30.85;35.96;100338.84;4287587;33;20071;-81
2022/08/09 08:04:26;;;;;;;;;;;;;;;31.04;35.51;100342.13;4284834;33;19973;-80
2022/08/09 08:06:58;;;;;;;;;;;;;;;31.03;36.08;100337.75;4293005;33;19993;-81
2022/08/09 08:09:45;;;;;;;;;;;;;;;30.68;35.60;100338.97;4286663;33;20044;-81
2022/08/09 08:12:21;;;;;;;;;;;;;;;31.10;34.66;100334.69;4260172;33;20019;-82
2022/08/09 08:14:58;;;;;;;;;;;;;;;30.75;36.16;100337.66;4287386;33;20671;-82
2022/08/09 08:17:25;;;;;;;;;;;;;;;31.28;34.48;100337.09;4293345;33;19991;-83
2022/08/09 08:20:12;;;;;;;;;;;;;;;31.44;34.25;100337.03;4293229;33;19988;-82
2022/08/09 08:22:40;;;;;;;;;;;;;;;31.40;33.93;100338.19;4277555;33;19992;-82
2022/08/09 08:25:07;;;;;;;;;;;;;;;31.71;32.89;100333.53;4295020;33;20012;-82
2022/08/09 08:27:39;;;;;;;;;;;;;;;31.98;33.75;100332.78;4293472;33;19988;-82
2022/08/09 08:30:10;;;;;;;;;;;;;;;31.73;33.79;100326.28;4278951;33;20407;-83
2022/08/09 08:32:38;;;;;;;;;;;;;;;31.67;33.85;100326.69;4267614;33;20412;-82
2022/08/09 08:35:19;;;;;;;;;;;;;;;31.73;33.67;100327.16;4276705;33;19981;-83
2022/08/09 08:37:51;;;;;;;;;;;;;;;31.03;35.37;100326.19;4264133;33;20004;-83
2022/08/09 08:40:31;;;;;;;;;;;;;;;30.66;36.11;100327.50;4272640;33;20007;-82
2022/08/09 08:43:00;;;;;;;;;;;;;;;31.43;34.65;100324.63;4254136;33;19993;-83
2022/08/09 08:45:34;;;;;;;;;;;;;;;31.81;32.86;100323.97;4273490;33;20040;-83
2022/08/09 08:48:04;;;;;;;;;;;;;;;31.48;34.15;100324.31;4258949;33;20454;-83
2022/08/09 08:50:31;;;;;;;;;;;;;;;31.18;35.04;100324.41;4290090;33;20406;-83
2022/08/09 08:53:00;;;;;;;;;;;;;;;31.44;34.53;100326.31;4307062;33;20370;-84
2022/08/09 08:55:27;;;;;;;;;;;;;;;31.95;32.86;100323.12;4291094;33;19984;-83
2022/08/09 08:57:57;;;;;;;;;;;;;;;32.25;32.44;100328.25;4282059;33;19981;-83
2022/08/09 09:00:26;;;;;;;;;;;;;;;32.24;31.80;100325.69;4287766;33;20649;-83
2022/08/09 09:02:57;;;;;;;;;;;;;;;31.89;33.80;100327.03;4291088;33;20429;-83
2022/08/09 09:05:30;;;;;;;;;;;;;;;32.49;31.12;100324.94;4295840;33;19976;-83
2022/08/09 09:08:18;;;;;;;;;;;;;;;32.34;31.84;100327.66;4281144;33;20861;-82
2022/08/09 09:11:02;;;;;;;;;;;;;;;32.31;31.83;100325.16;4293366;33;19981;-83
2022/08/09 09:13:30;;;;;;;;;;;;;;;31.98;32.46;100330.94;4294008;33;19980;-83
2022/08/09 09:16:13;;;;;;;;;;;;;;;31.79;33.34;100323.22;4301367;33;20002;-84
2022/08/09 09:18:41;;;;;;;;;;;;;;;31.76;32.81;100312.72;4283123;33;20166;-83
2022/08/09 09:21:17;;;;;;;;;;;;;;;32.46;31.74;100320.66;4282481;33;19984;-82
2022/08/09 09:23:52;;;;;;;;;;;;;;;31.91;33.13;100325.13;4287569;33;19980;-83
2022/08/09 09:26:30;;;;;;;;;;;;;;;32.57;31.59;100326.13;4293818;33;20015;-83
2022/08/09 09:28:57;;;;;;;;;;;;;;;32.22;34.83;100312.38;4282218;33;19989;-83
2022/08/09 09:31:42;;;;;;;;;;;;;;;31.94;34.33;100319.59;4299518;33;19999;-83
2022/08/09 09:34:29;;;;;;;;;;;;;;;32.23;33.10;100315.91;4291275;33;20049;-82
2022/08/09 09:36:59;;;;;;;;;;;;;;;32.29;31.84;100318.19;4277270;33;19977;-82
2022/08/09 09:39:27;;;;;;;;;;;;;;;32.46;31.46;100314.44;4277491;33;20002;-82
2022/08/09 09:42:25;;;;;;;;;;;;;;;32.33;32.41;100315.22;4290749;33;20127;-82
2022/08/09 09:44:58;;;;;;;;;;;;;;;32.52;31.50;100319.38;4290101;33;20457;-83
2022/08/09 09:47:26;;;;;;;;;;;;;;;32.57;32.61;100314.53;4282005;33;19980;-82
2022/08/09 09:49:56;;;;;;;;;;;;;;;32.77;32.67;100319.41;4292514;33;19985;-84
2022/08/09 09:52:53;;;;;;;;;;;;;;;32.63;31.56;100312.31;4281739;33;19989;-82
2022/08/09 09:55:23;;;;;;;;;;;;;;;33.04;31.12;100321.16;4292529;33;19993;-81
2022/08/09 09:58:03;;;;;;;;;;;;;;;33.08;29.96;100317.28;4298546;33;20338;-83
2022/08/09 10:00:50;;;;;;;;;;;;;;;33.37;30.62;100311.69;4292916;33;19981;-83
2022/08/09 10:03:40;;;;;;;;;;;;;;;33.12;31.70;100318.78;4284218;33;20422;-82
2022/08/09 10:06:11;;;;;;;;;;;;;;;32.86;31.26;100318.75;4280938;33;20051;-83
2022/08/09 10:08:42;;;;;;;;;;;;;;;33.30;30.53;100311.28;4298055;33;19996;-83
2022/08/09 10:11:23;;;;;;;;;;;;;;;33.25;30.69;100308.94;4287507;33;20052;-85
2022/08/09 10:14:26;;;;;;;;;;;;;;;33.36;31.21;100312.66;4290717;33;19992;-83
2022/08/09 10:17:08;;;;;;;;;;;;;;;33.54;29.89;100306.00;4286764;33;19989;-83
2022/08/09 10:19:55;;;;;;;;;;;;;;;33.58;30.90;100299.44;4281262;33;19986;-83
2022/08/09 10:22:30;;;;;;;;;;;;;;;33.50;31.25;100297.28;4292986;33;20004;-82
2022/08/09 10:25:00;;;;;;;;;;;;;;;33.61;31.70;100296.53;4275176;33;20053;-83
2022/08/09 10:27:40;;;;;;;;;;;;;;;33.25;31.71;100290.16;4282346;33;20031;-84
2022/08/09 10:30:27;;;;;;;;;;;;;;;33.16;31.25;100293.47;4297474;33;19995;-83
2022/08/09 10:33:14;;;;;;;;;;;;;;;33.12;30.72;100281.22;4289227;33;19993;-82
2022/08/09 10:36:05;;;;;;;;;;;;;;;32.43;32.28;100283.34;4282609;33;20393;-83
2022/08/09 10:38:37;;;;;;;;;;;;;;;32.31;31.98;100282.28;4297201;33;20734;-82
2022/08/09 10:41:24;;;;;;;;;;;;;;;32.62;32.11;100283.78;4280712;33;19980;-83
2022/08/09 10:43:54;;;;;;;;;;;;;;;32.56;32.42;100288.72;4285485;33;20369;-82
2022/08/09 10:46:33;;;;;;;;;;;;;;;32.18;33.95;100289.44;4286941;33;19995;-82
2022/08/09 10:49:08;;;;;;;;;;;;;;;32.05;33.60;100283.19;4290254;33;19976;-81
2022/08/09 10:51:39;;;;;;;;;;;;;;;32.72;31.54;100289.38;4297686;33;19984;-83
2022/08/09 10:54:09;;;;;;;;;;;;;;;32.63;32.01;100281.97;4294406;33;19996;-83
2022/08/09 10:56:42;;;;;;;;;;;;;;;31.92;34.29;100284.00;4290398;33;19989;-84
2022/08/09 10:59:21;;;;;;;;;;;;;;;31.88;33.33;100279.81;4291392;33;20003;-83
2022/08/09 11:01:56;;;;;;;;;;;;;;;32.02;33.62;100283.41;4280611;33;20004;-83
2022/08/09 11:04:45;;;;;;;;;;;;;;;32.22;32.73;100282.91;4289201;33;19985;-82
2022/08/09 11:07:26;;;;;;;;;;;;;;;31.67;33.82;100275.81;4298663;33;19991;-83
2022/08/09 11:10:13;;;;;;;;;;;;;;;31.75;33.26;100276.19;4288357;33;20007;-83
2022/08/09 11:12:43;;;;;;;;;;;;;;;31.79;33.00;100277.69;4279080;33;19957;-82
2022/08/09 11:15:18;;;;;;;;;;;;;;;31.75;33.38;100278.88;4290116;33;20418;-81
2022/08/09 11:17:51;;;;;;;;;;;;;;;31.65;35.46;100275.03;4284725;33;20413;-82
2022/08/09 11:20:37;;;;;;;;;;;;;;;31.64;36.12;100278.69;4291803;33;20028;-82
2022/08/09 11:23:04;;;;;;;;;;;;;;;31.39;34.24;100274.91;4286604;33;20029;-82
2022/08/09 11:25:37;;;;;;;;;;;;;;;31.66;34.32;100269.62;4280604;33;21056;-84
2022/08/09 11:28:32;;;;;;;;;;;;;;;31.83;33.84;100271.19;4280839;33;19989;-82
2022/08/09 11:31:23;;;;;;;;;;;;;;;32.13;32.23;100264.78;4281064;33;19988;-81
2022/08/09 11:34:02;;;;;;;;;;;;;;;32.21;31.50;100264.28;4280820;33;20007;-81
2022/08/09 11:36:30;;;;;;;;;;;;;;;32.23;31.91;100260.53;4280633;33;19985;-81
2022/08/09 11:39:02;;;;;;;;;;;;;;;32.61;32.16;100259.75;4279097;33;19988;-82
2022/08/09 11:41:30;;;;;;;;;;;;;;;32.53;30.99;100256.75;4280286;33;19996;-82
2022/08/09 11:44:06;;;;;;;;;;;;;;;32.53;31.86;100262.12;4286791;33;19995;-82
2022/08/09 11:46:52;;;;;;;;;;;;;;;32.37;30.65;100263.13;4291653;33;20319;-83
2022/08/09 11:49:39;;;;;;;;;;;;;;;31.87;34.08;100263.81;4282979;33;20003;-82
2022/08/09 11:52:27;;;;;;;;;;;;;;;31.91;32.93;100260.87;3995783;33;10000757;-82
2022/08/09 11:55:30;;;;;;;;;;;;;;;31.84;33.89;100261.31;4280354;33;20039;-83
2022/08/09 11:58:17;;;;;;;;;;;;;;;31.67;32.46;100254.41;4289795;33;20043;-83
2022/08/09 12:00:52;;;;;;;;;;;;;;;31.77;33.08;100258.19;4291720;33;19980;-82
2022/08/09 12:03:20;;;;;;;;;;;;;;;31.94;31.58;100255.31;4289374;33;19988;-83
2022/08/09 12:06:08;;;;;;;;;;;;;;;31.68;32.96;100253.44;4290707;33;19993;-82
2022/08/09 12:08:36;;;;;;;;;;;;;;;31.59;34.61;100248.69;4296934;33;19988;-81
2022/08/09 12:11:04;;;;;;;;;;;;;;;31.86;32.54;100254.91;4290451;33;19981;-80
2022/08/09 12:13:40;;;;;;;;;;;;;;;31.78;33.10;100256.38;4285783;33;19989;-80
2022/08/09 12:16:30;;;;;;;;;;;;;;;31.66;31.90;100253.56;4289088;33;20047;-81
2022/08/09 12:19:09;;;;;;;;;;;;;;;31.91;32.29;100252.84;4288732;33;20338;-81
2022/08/09 12:21:41;;;;;;;;;;;;;;;31.64;32.74;100246.56;4286728;33;20830;-82
2022/08/09 12:24:28;;;;;;;;;;;;;;;31.75;33.10;100246.75;4287294;33;20318;-81
2022/08/09 12:27:05;;;;;;;;;;;;;;;31.82;31.23;100240.03;4287991;33;19989;-82
2022/08/09 12:29:53;;;;;;;;;;;;;;;31.53;32.04;100241.06;4286241;33;19976;-82
2022/08/09 12:32:30;;;;;;;;;;;;;;;31.64;31.15;100235.88;4284751;33;19988;-81
2022/08/09 12:35:00;;;;;;;;;;;;;;;31.69;31.60;100239.12;4298496;33;20059;-81
2022/08/09 12:37:32;;;;;;;;;;;;;;;31.47;32.25;100235.16;4281327;33;20008;-82
2022/08/09 12:40:19;;;;;;;;;;;;;;;31.24;34.22;100233.06;4296528;33;19996;-82
2022/08/09 12:42:46;;;;;;;;;;;;;;;30.98;34.93;100232.91;4287285;33;20727;-82
2022/08/09 12:45:16;;;;;;;;;;;;;;;30.76;35.94;100232.44;4285571;33;19976;-83
2022/08/09 12:48:01;;;;;;;;;;;;;;;30.81;36.63;100227.72;4293738;33;19988;-82
2022/08/09 12:50:28;;;;;;;;;;;;;;;30.95;37.02;100227.75;4292363;33;19989;-83
2022/08/09 12:52:55;;;;;;;;;;;;;;;30.91;36.95;100226.19;4285682;33;19977;-82
2022/08/09 12:55:43;;;;;;;;;;;;;;;31.24;34.88;100227.72;4288486;33;20035;-83
2022/08/09 12:58:30;;;;;;;;;;;;;;;31.70;31.46;100219.41;4279348;33;20024;-82
2022/08/09 13:01:00;;;;;;;;;;;;;;;31.72;31.89;100212.16;4289746;33;20057;-82
2022/08/09 13:03:34;;;;;;;;;;;;;;;31.36;33.92;100221.59;4289184;33;20482;-83
2022/08/09 13:06:35;;;;;;;;;;;;;;;31.45;33.60;100215.66;4279219;33;20067;-80
2022/08/09 13:09:07;;;;;;;;;;;;;;;31.47;33.32;100218.25;4285352;33;20000;-82
2022/08/09 13:11:35;;;;;;;;;;;;;;;31.38;32.42;100208.97;4290576;33;19981;-82
2022/08/09 13:14:09;;;;;;;;;;;;;;;31.65;31.53;100216.16;4297466;33;20023;-81
2022/08/09 13:17:01;;;;;;;;;;;;;;;31.10;34.57;100220.56;4301774;33;19981;-81
2022/08/09 13:19:32;;;;;;;;;;;;;;;31.26;33.85;100215.09;4293166;33;20028;-81